createdAt,value
2018-10-12T00:02:26.311Z,62.00
2018-10-12T00:07:29.413Z,62.10
2018-10-12T00:12:32.532Z,61.70
2018-10-12T00:17:35.672Z,61.80
2018-10-12T00:22:38.792Z,62.10
2018-10-12T00:27:41.902Z,62.90
2018-10-12T00:32:45.248Z,63.20
2018-10-12T00:37:48.356Z,63.40
2018-10-12T00:42:52.152Z,63.10
2018-10-12T00:47:59.688Z,63.60
2018-10-12T00:53:02.808Z,63.60
2018-10-12T00:58:05.912Z,64.40
2018-10-12T01:03:09.052Z,64.00
2018-10-12T01:08:12.166Z,63.90
2018-10-12T01:13:15.273Z,64.80
2018-10-12T01:18:18.572Z,64.50
2018-10-12T01:23:21.677Z,65.60
2018-10-12T01:28:24.784Z,65.90
2018-10-12T01:33:27.888Z,65.50
2018-10-12T01:38:30.996Z,66.20
2018-10-12T01:43:34.108Z,66.50
2018-10-12T01:48:37.221Z,65.80
2018-10-12T01:53:40.325Z,66.20
2018-10-12T01:58:43.424Z,65.30
2018-10-12T02:03:46.536Z,66.70
2018-10-12T02:08:49.653Z,66.20
2018-10-12T02:13:52.780Z,67.40
2018-10-12T02:18:55.896Z,67.10
2018-10-12T02:23:59.000Z,66.70
2018-10-12T02:29:02.100Z,67.10
2018-10-12T02:34:05.720Z,67.50
2018-10-12T02:39:10.745Z,67.50
2018-10-12T02:44:13.861Z,68.90
2018-10-12T02:49:16.973Z,68.00
2018-10-12T02:54:20.080Z,68.50
2018-10-12T02:59:23.197Z,69.10
2018-10-12T03:04:26.310Z,68.70
2018-10-12T03:09:29.408Z,68.10
2018-10-12T03:14:32.512Z,69.00
2018-10-12T03:19:35.612Z,69.30
2018-10-12T03:24:38.725Z,69.40
2018-10-12T03:29:41.824Z,69.60
2018-10-12T03:34:44.936Z,69.40
2018-10-12T03:39:48.045Z,69.50
2018-10-12T03:44:51.156Z,68.90
2018-10-12T03:49:54.265Z,68.90
2018-10-12T03:54:57.368Z,69.40
2018-10-12T04:00:00.489Z,68.60
2018-10-12T04:05:03.598Z,69.30
2018-10-12T04:10:06.712Z,69.50
2018-10-12T04:15:09.841Z,68.70
2018-10-12T04:20:12.966Z,69.10
2018-10-12T04:25:16.076Z,68.50
2018-10-12T04:30:19.184Z,68.70
2018-10-12T04:35:22.289Z,68.50
2018-10-12T04:41:09.884Z,68.90
2018-10-12T04:46:15.141Z,68.70
2018-10-12T04:51:21.801Z,68.50
2018-10-12T04:56:26.028Z,68.30
2018-10-12T05:01:29.168Z,68.00
2018-10-12T05:06:32.293Z,68.30
2018-10-12T05:11:35.425Z,68.60
2018-10-12T05:16:38.619Z,68.00
2018-10-12T05:21:41.717Z,68.00
2018-10-12T05:26:44.829Z,68.60
2018-10-12T05:31:47.936Z,68.10
2018-10-12T05:36:51.040Z,68.20
2018-10-12T05:41:54.186Z,68.50
2018-10-12T05:46:57.293Z,68.30
2018-10-12T05:52:00.409Z,68.60
2018-10-12T05:57:03.526Z,68.90
2018-10-12T06:02:06.771Z,68.80
2018-10-12T06:07:10.746Z,68.80
2018-10-12T06:12:13.851Z,69.00
2018-10-12T06:17:16.956Z,68.80
2018-10-12T06:22:20.088Z,68.80
2018-10-12T06:27:23.188Z,68.90
2018-10-12T06:32:26.293Z,69.10
2018-10-12T06:37:29.469Z,69.00
2018-10-12T06:42:32.574Z,69.10
2018-10-12T06:47:35.689Z,69.20
2018-10-12T06:52:38.804Z,68.80
2018-10-12T06:57:41.911Z,69.30
2018-10-12T07:02:45.021Z,69.20
2018-10-12T07:07:48.128Z,69.10
2018-10-12T07:12:51.232Z,69.10
2018-10-12T07:17:54.346Z,68.90
2018-10-12T07:22:57.468Z,68.90
2018-10-12T07:28:00.581Z,68.70
2018-10-12T07:33:03.685Z,68.80
2018-10-12T07:38:07.076Z,68.40
2018-10-12T07:43:10.184Z,67.50
2018-10-12T07:48:13.379Z,67.10
2018-10-12T07:53:16.446Z,67.20
2018-10-12T07:58:19.508Z,67.00
2018-10-12T08:03:22.608Z,66.50
2018-10-12T08:08:25.741Z,66.80
2018-10-12T08:13:28.862Z,66.20
2018-10-12T08:18:32.016Z,66.90
2018-10-12T08:23:35.144Z,64.70
2018-10-12T08:28:38.244Z,63.90
2018-10-12T08:33:41.344Z,64.10
2018-10-12T08:38:44.449Z,64.10
2018-10-12T08:43:47.557Z,63.30
2018-10-12T08:48:50.660Z,62.90
2018-10-12T08:53:53.780Z,63.20
2018-10-12T08:58:56.896Z,61.80
2018-10-12T09:04:00.076Z,62.10
2018-10-12T09:09:05.142Z,61.60
2018-10-12T09:14:08.275Z,61.70
2018-10-12T09:19:11.376Z,60.30
2018-10-12T09:24:14.500Z,60.20
2018-10-12T09:29:17.609Z,57.70
2018-10-12T09:34:20.720Z,59.50
2018-10-12T09:39:23.827Z,59.80
2018-10-12T09:44:26.944Z,58.50
2018-10-12T09:49:30.052Z,57.60
2018-10-12T09:54:33.153Z,56.90
2018-10-12T09:59:36.261Z,57.60
2018-10-12T10:04:39.369Z,57.30
2018-10-12T10:09:42.472Z,55.10
2018-10-12T10:14:45.593Z,57.00
2018-10-12T10:19:48.710Z,55.90
2018-10-12T10:24:51.842Z,55.40
2018-10-12T10:29:54.936Z,54.20
2018-10-12T10:34:58.045Z,54.50
2018-10-12T10:40:01.155Z,55.30
2018-10-12T10:45:04.259Z,54.60
2018-10-12T10:50:07.364Z,52.40
2018-10-12T10:55:10.502Z,51.90
2018-10-12T11:00:13.727Z,50.50
2018-10-12T11:05:16.843Z,50.90
2018-10-12T11:10:19.957Z,51.10
2018-10-12T11:15:23.064Z,52.00
2018-10-12T11:20:26.176Z,50.90
2018-10-12T11:25:29.297Z,52.10
2018-10-12T11:30:32.421Z,51.70
2018-10-12T11:35:35.552Z,51.80
2018-10-12T11:40:38.669Z,51.20
2018-10-12T11:45:41.794Z,50.10
2018-10-12T11:50:44.897Z,51.10
2018-10-12T11:55:48.055Z,50.90
2018-10-12T12:00:51.299Z,49.80
2018-10-12T12:05:55.105Z,48.20
2018-10-12T12:10:58.063Z,48.30
2018-10-12T12:16:01.177Z,48.00
2018-10-12T12:21:04.290Z,48.10
2018-10-12T12:26:07.548Z,48.40
2018-10-12T12:31:10.652Z,48.50
2018-10-12T12:36:14.672Z,48.80
2018-10-12T12:41:17.624Z,49.20
2018-10-12T12:46:20.737Z,48.20
2018-10-12T12:51:23.845Z,50.00
2018-10-12T12:56:26.949Z,47.70
2018-10-12T13:01:30.076Z,47.40
2018-10-12T13:06:33.277Z,47.40
2018-10-12T13:11:36.546Z,47.90
2018-10-12T13:16:39.654Z,47.80
2018-10-12T13:21:42.764Z,47.60
2018-10-12T13:26:45.909Z,47.20
2018-10-12T13:31:49.038Z,47.30
2018-10-12T13:36:52.111Z,46.10
2018-10-12T13:41:55.220Z,46.90
2018-10-12T13:46:58.324Z,47.30
2018-10-12T13:52:01.444Z,48.10
2018-10-12T13:57:05.756Z,47.40
2018-10-12T14:02:08.914Z,46.80
2018-10-12T14:07:12.025Z,47.40
2018-10-12T14:12:15.224Z,47.30
2018-10-12T14:17:18.292Z,47.60
2018-10-12T14:22:21.397Z,47.60
2018-10-12T14:27:24.531Z,47.60
2018-10-12T14:32:27.632Z,48.20
2018-10-12T14:37:30.748Z,47.10
2018-10-12T14:42:33.848Z,48.20
2018-10-12T14:47:37.027Z,48.80
2018-10-12T14:52:40.136Z,49.60
2018-10-12T14:57:43.249Z,49.80
2018-10-12T15:02:46.642Z,50.00
2018-10-12T15:07:49.780Z,50.60
2018-10-12T15:12:52.890Z,50.60
2018-10-12T15:17:56.772Z,50.90
2018-10-12T15:22:59.885Z,51.10
2018-10-12T15:28:03.002Z,51.00
2018-10-12T15:33:06.109Z,51.40
2018-10-12T15:38:09.211Z,51.80
2018-10-12T15:43:12.374Z,52.10
2018-10-12T15:48:15.832Z,52.00
2018-10-12T15:53:19.101Z,52.20
2018-10-12T15:58:22.437Z,52.40
2018-10-12T16:03:25.596Z,52.60
2018-10-12T16:08:28.724Z,52.80
2018-10-12T16:13:31.889Z,53.00
2018-10-12T16:18:35.052Z,53.70
2018-10-12T16:23:38.193Z,54.00
2018-10-12T16:28:41.310Z,54.10
2018-10-12T16:33:44.412Z,54.80
2018-10-12T16:38:47.526Z,54.90
2018-10-12T16:43:50.621Z,55.50
2018-10-12T16:48:53.779Z,56.10
2018-10-12T16:53:56.860Z,56.20
2018-10-12T16:58:59.978Z,56.30
2018-10-12T17:04:03.128Z,56.90
2018-10-12T17:09:06.472Z,57.40
2018-10-12T17:14:09.731Z,57.80
2018-10-12T17:19:12.821Z,57.90
2018-10-12T17:24:16.020Z,57.70
2018-10-12T17:29:19.124Z,57.70
2018-10-12T17:34:22.240Z,57.90
2018-10-12T17:39:25.345Z,57.90
2018-10-12T17:44:28.517Z,57.90
2018-10-12T17:49:31.626Z,58.10
2018-10-12T17:54:34.773Z,58.30
2018-10-12T17:59:37.953Z,58.90
2018-10-12T18:04:41.106Z,59.20
2018-10-12T18:09:44.209Z,59.60
2018-10-12T18:14:47.396Z,59.70
2018-10-12T18:19:50.570Z,60.20
2018-10-12T18:24:53.684Z,60.40
2018-10-12T18:29:56.809Z,60.80
2018-10-12T18:34:59.943Z,61.00
2018-10-12T18:40:03.069Z,61.30
2018-10-12T18:45:06.271Z,61.20
2018-10-12T18:50:09.373Z,61.00
2018-10-12T18:55:12.480Z,61.60
2018-10-12T19:00:15.650Z,61.80
2018-10-12T19:05:18.773Z,62.00
2018-10-12T19:10:21.885Z,61.90
2018-10-12T19:15:25.159Z,62.20
2018-10-12T19:20:28.264Z,62.10
2018-10-12T19:25:31.384Z,62.60
2018-10-12T19:30:34.496Z,62.70
2018-10-12T19:35:37.614Z,63.00
2018-10-12T19:40:40.725Z,63.50
2018-10-12T19:45:43.844Z,64.10
2018-10-12T19:50:46.997Z,64.20
2018-10-12T19:55:50.116Z,64.40
2018-10-12T20:00:53.243Z,64.80
2018-10-12T20:05:56.352Z,65.10
2018-10-12T20:10:59.464Z,65.40
2018-10-12T20:16:02.592Z,65.50
2018-10-12T20:21:06.004Z,65.90
2018-10-12T20:26:09.116Z,66.00
2018-10-12T20:31:12.259Z,66.10
2018-10-12T20:36:15.404Z,66.40
2018-10-12T20:41:18.525Z,66.60
2018-10-12T20:46:21.659Z,66.80
2018-10-12T20:51:24.765Z,66.90
2018-10-12T20:56:27.869Z,67.30
2018-10-12T21:01:31.028Z,67.30
2018-10-12T21:06:34.139Z,67.20
2018-10-12T21:11:37.253Z,67.20
2018-10-12T21:16:40.360Z,67.50
2018-10-12T21:21:43.500Z,67.80
2018-10-12T21:26:46.656Z,67.90
2018-10-12T21:31:49.755Z,68.00
2018-10-12T21:36:52.869Z,68.20
2018-10-12T21:41:55.976Z,68.30
2018-10-12T21:46:59.116Z,68.00
2018-10-12T21:52:02.217Z,68.30
2018-10-12T21:57:05.855Z,68.30
2018-10-12T22:02:09.049Z,68.00
2018-10-12T22:07:12.191Z,68.20
2018-10-12T22:12:15.256Z,68.20
2018-10-12T22:17:18.365Z,68.10
2018-10-12T22:22:21.550Z,68.30
2018-10-12T22:27:24.655Z,67.80
2018-10-12T22:32:27.760Z,67.60
2018-10-12T22:37:30.888Z,68.00
2018-10-12T22:42:34.009Z,67.90
2018-10-12T22:47:37.108Z,67.90
2018-10-12T22:52:40.223Z,68.00
2018-10-12T22:57:43.329Z,67.80
2018-10-12T23:02:46.445Z,68.40
2018-10-12T23:07:49.573Z,68.40
2018-10-12T23:12:52.940Z,68.50
2018-10-12T23:17:56.048Z,68.60
2018-10-12T23:22:59.151Z,68.80
2018-10-12T23:28:02.257Z,68.50
2018-10-12T23:33:17.140Z,68.70
2018-10-12T23:38:20.242Z,68.60
2018-10-12T23:43:23.364Z,68.70
2018-10-12T23:48:26.468Z,68.70
2018-10-12T23:53:29.625Z,69.30
2018-10-12T23:58:32.772Z,69.10
